createdAt,value
2019-05-20T00:01:51.128Z,100255.53
2019-05-20T00:04:21.732Z,100258.50
2019-05-20T00:06:52.356Z,100258.98
2019-05-20T00:09:22.967Z,100261.81
2019-05-20T00:11:53.885Z,100263.42
2019-05-20T00:14:25.619Z,100265.50
2019-05-20T00:16:56.332Z,100266.99
2019-05-20T00:19:26.967Z,100272.41
2019-05-20T00:21:57.675Z,100272.28
2019-05-20T00:24:28.261Z,100273.87
2019-05-20T00:26:59.964Z,100273.51
2019-05-20T00:29:30.613Z,100275.85
2019-05-20T00:32:01.447Z,100272.02
2019-05-20T00:34:35.258Z,100271.90
2019-05-20T00:37:08.738Z,100273.48
2019-05-20T00:39:39.404Z,100279.02
2019-05-20T00:42:10.136Z,100284.70
2019-05-20T00:44:41.859Z,100278.91
2019-05-20T00:47:12.539Z,100278.03
2019-05-20T00:49:43.078Z,100276.19
2019-05-20T00:52:13.769Z,100276.45
2019-05-20T00:54:44.510Z,100275.70
2019-05-20T00:57:16.193Z,100275.58
2019-05-20T00:59:46.777Z,100276.20
2019-05-20T01:02:22.442Z,100271.23
2019-05-20T01:04:53.037Z,100277.91
2019-05-20T01:07:28.718Z,100276.20
2019-05-20T01:09:59.336Z,100274.97
2019-05-20T01:12:30.024Z,100273.00
2019-05-20T01:15:00.678Z,100269.94
2019-05-20T01:17:31.335Z,100266.33
2019-05-20T01:20:02.037Z,100269.06
2019-05-20T01:22:32.640Z,100264.23
2019-05-20T01:25:03.414Z,100268.33
2019-05-20T01:27:44.021Z,100271.39
2019-05-20T01:30:15.022Z,100281.13
2019-05-20T01:32:45.622Z,100278.41
2019-05-20T01:35:16.222Z,100276.56
2019-05-20T01:37:46.874Z,100278.17
2019-05-20T01:40:17.772Z,100281.73
2019-05-20T01:42:50.358Z,100276.47
2019-05-20T01:45:20.977Z,100280.88
2019-05-20T01:47:51.669Z,100284.33
2019-05-20T01:50:22.347Z,100284.70
2019-05-20T01:52:53.020Z,100284.21
2019-05-20T01:55:23.677Z,100276.13
2019-05-20T01:57:56.295Z,100277.97
2019-05-20T02:00:26.906Z,100276.11
2019-05-20T02:02:57.794Z,100268.83
2019-05-20T02:05:29.226Z,100263.17
2019-05-20T02:07:59.996Z,100265.36
2019-05-20T02:10:34.543Z,100264.74
2019-05-20T02:13:06.792Z,100274.69
2019-05-20T02:15:52.876Z,100275.31
2019-05-20T02:18:25.196Z,100285.92
2019-05-20T02:20:57.466Z,100285.67
2019-05-20T02:23:29.726Z,100287.27
2019-05-20T02:26:02.007Z,100287.03
2019-05-20T02:28:34.169Z,100287.01
2019-05-20T02:31:06.608Z,100292.31
2019-05-20T02:33:51.072Z,100293.05
2019-05-20T02:36:12.881Z,100293.58
2019-05-20T02:38:45.364Z,100291.13
2019-05-20T02:41:17.606Z,100289.25
2019-05-20T02:43:50.195Z,100290.98
2019-05-20T02:46:21.697Z,100297.39
2019-05-20T02:48:54.915Z,100300.45
2019-05-20T02:51:33.263Z,100306.99
2019-05-20T02:54:06.068Z,100304.77
2019-05-20T02:56:39.478Z,100294.04
2019-05-20T02:59:11.056Z,100297.09
2019-05-20T03:01:41.826Z,100297.20
2019-05-20T03:04:13.245Z,100297.59
2019-05-20T03:06:44.098Z,100299.92
2019-05-20T03:09:14.741Z,100297.81
2019-05-20T03:11:45.517Z,100292.88
2019-05-20T03:14:17.086Z,100294.22
2019-05-20T03:16:51.485Z,100303.72
2019-05-20T03:19:22.965Z,100303.23
2019-05-20T03:21:54.216Z,100311.51
2019-05-20T03:24:26.463Z,100306.92
2019-05-20T03:26:58.210Z,100315.68
2019-05-20T03:29:29.411Z,100309.14
2019-05-20T03:32:00.933Z,100306.67
2019-05-20T03:34:47.969Z,100307.09
2019-05-20T03:37:07.288Z,100302.72
2019-05-20T03:39:39.207Z,100302.36
2019-05-20T03:42:10.360Z,100305.70
2019-05-20T03:44:41.512Z,100304.20
2019-05-20T03:47:12.167Z,100310.98
2019-05-20T03:49:43.056Z,100312.21
2019-05-20T03:52:13.893Z,100310.37
2019-05-20T03:54:44.746Z,100310.75
2019-05-20T03:57:17.603Z,100310.72
2019-05-20T03:59:49.375Z,100320.24
2019-05-20T04:02:22.217Z,100319.23
2019-05-20T04:05:02.451Z,100312.70
2019-05-20T04:07:31.325Z,100318.37
2019-05-20T04:10:03.208Z,100318.50
2019-05-20T04:12:33.907Z,100323.31
2019-05-20T04:15:12.377Z,100321.70
2019-05-20T04:17:43.326Z,100325.88
2019-05-20T04:20:15.350Z,100328.25
2019-05-20T04:22:47.186Z,100324.28
2019-05-20T04:25:17.867Z,100322.65
2019-05-20T04:27:50.542Z,100315.25
2019-05-20T04:30:21.348Z,100317.22
2019-05-20T04:32:53.998Z,100325.37
2019-05-20T04:35:25.136Z,100324.11
2019-05-20T04:37:55.876Z,100319.83
2019-05-20T04:40:26.533Z,100328.19
2019-05-20T04:42:57.163Z,100329.44
2019-05-20T04:45:27.980Z,100335.25
2019-05-20T04:47:58.713Z,100338.31
2019-05-20T04:50:32.747Z,100328.08
2019-05-20T04:53:10.032Z,100330.03
2019-05-20T04:55:40.632Z,100327.17
2019-05-20T04:58:11.194Z,100324.50
2019-05-20T05:00:55.484Z,100314.47
2019-05-20T05:03:32.215Z,100313.40
2019-05-20T05:06:03.965Z,100315.77
2019-05-20T05:08:34.669Z,100320.42
2019-05-20T05:11:07.323Z,100322.52
2019-05-20T05:13:46.352Z,100328.33
2019-05-20T05:16:22.539Z,100329.05
2019-05-20T05:19:08.532Z,100339.28
2019-05-20T05:21:39.172Z,100337.52
2019-05-20T05:24:09.856Z,100338.03
2019-05-20T05:26:49.871Z,100334.20
2019-05-20T05:29:25.417Z,100342.63
2019-05-20T05:32:04.229Z,100340.39
2019-05-20T05:34:34.863Z,100333.86
2019-05-20T05:37:05.489Z,100342.73
2019-05-20T05:39:39.310Z,100343.46
2019-05-20T05:42:09.932Z,100339.63
2019-05-20T05:44:45.507Z,100348.50
2019-05-20T05:47:21.248Z,100339.39
2019-05-20T05:49:51.835Z,100353.23
2019-05-20T05:52:23.069Z,100346.55
2019-05-20T05:54:53.759Z,100354.45
2019-05-20T05:57:24.463Z,100354.31
2019-05-20T05:59:57.134Z,100345.79
2019-05-20T06:02:27.804Z,100348.37
2019-05-20T06:04:58.370Z,100349.86
2019-05-20T06:07:29.109Z,100351.36
2019-05-20T06:09:59.679Z,100345.66
2019-05-20T06:12:51.668Z,100349.76
2019-05-20T06:15:24.375Z,100352.09
2019-05-20T06:17:55.162Z,100343.70
2019-05-20T06:20:26.863Z,100350.38
2019-05-20T06:22:57.543Z,100348.05
2019-05-20T06:25:28.264Z,100349.72
2019-05-20T06:28:07.992Z,100353.58
2019-05-20T06:30:42.204Z,100360.72
2019-05-20T06:33:12.867Z,100360.47
2019-05-20T06:35:43.474Z,100358.39
2019-05-20T06:38:17.808Z,100364.55
2019-05-20T06:40:48.400Z,100365.41
2019-05-20T06:43:24.072Z,100374.05
2019-05-20T06:45:54.682Z,100376.03
2019-05-20T06:48:29.975Z,100377.62
2019-05-20T06:51:00.709Z,100374.91
2019-05-20T06:53:31.414Z,100382.38
2019-05-20T06:56:05.225Z,100383.08
2019-05-20T06:58:35.962Z,100376.27
2019-05-20T07:01:06.708Z,100372.58
2019-05-20T07:03:37.478Z,100380.45
2019-05-20T07:06:08.220Z,100384.38
2019-05-20T07:08:38.929Z,100387.94
2019-05-20T07:11:09.713Z,100400.02
2019-05-20T07:13:40.472Z,100402.97
2019-05-20T07:16:12.557Z,100401.89
2019-05-20T07:18:43.563Z,100403.08
2019-05-20T07:21:18.230Z,100405.69
2019-05-20T07:23:52.276Z,100413.37
2019-05-20T07:26:21.812Z,100414.21
2019-05-20T07:28:53.097Z,100411.64
2019-05-20T07:31:35.198Z,100412.47
2019-05-20T07:34:06.203Z,100415.57
2019-05-20T07:36:37.957Z,100414.95
2019-05-20T07:39:08.719Z,100411.61
2019-05-20T07:41:41.736Z,100409.03
2019-05-20T07:44:12.870Z,100411.36
2019-05-20T07:46:43.668Z,100413.80
2019-05-20T07:49:15.686Z,100403.95
2019-05-20T07:51:46.560Z,100411.70
2019-05-20T07:54:20.277Z,100410.73
2019-05-20T07:57:12.171Z,100409.23
2019-05-20T07:59:43.174Z,100401.23
2019-05-20T08:02:13.901Z,100410.73
2019-05-20T08:04:47.919Z,100406.41
2019-05-20T08:07:29.776Z,100406.03
2019-05-20T08:09:52.104Z,100412.72
2019-05-20T08:12:23.610Z,100414.59
2019-05-20T08:14:54.389Z,100415.57
2019-05-20T08:17:28.340Z,100421.25
2019-05-20T08:19:59.297Z,100426.11
2019-05-20T08:22:33.240Z,100430.27
2019-05-20T08:25:04.529Z,100433.11
2019-05-20T08:27:35.328Z,100434.82
2019-05-20T08:30:06.841Z,100428.91
2019-05-20T08:32:37.591Z,100438.62
2019-05-20T08:35:08.657Z,100435.66
2019-05-20T08:37:45.405Z,100435.28
2019-05-20T08:40:17.972Z,100440.22
2019-05-20T08:43:04.968Z,100440.19
2019-05-20T08:45:35.909Z,100437.13
2019-05-20T08:48:22.933Z,100427.37
2019-05-20T08:50:53.771Z,100434.16
2019-05-20T08:53:24.472Z,100437.81
2019-05-20T08:55:55.289Z,100445.58
2019-05-20T08:58:36.711Z,100446.31
2019-05-20T09:01:10.441Z,100444.74
2019-05-20T09:03:41.668Z,100443.77
2019-05-20T09:06:13.394Z,100449.55
2019-05-20T09:08:45.386Z,100451.60
2019-05-20T09:11:16.278Z,100456.69
2019-05-20T09:13:47.135Z,100444.81
2019-05-20T09:16:18.123Z,100445.39
2019-05-20T09:18:48.806Z,100442.30
2019-05-20T09:21:19.525Z,100444.14
2019-05-20T09:23:50.186Z,100448.05
2019-05-20T09:26:20.884Z,100446.65
2019-05-20T09:28:51.597Z,100449.23
2019-05-20T09:31:22.384Z,100454.31
2019-05-20T09:33:53.301Z,100450.25
2019-05-20T09:36:29.313Z,100450.33
2019-05-20T09:39:00.280Z,100448.05
2019-05-20T09:41:33.575Z,100442.62
2019-05-20T09:44:04.520Z,100441.26
2019-05-20T09:46:35.267Z,100443.16
2019-05-20T09:49:07.207Z,100437.14
2019-05-20T09:51:37.889Z,100439.22
2019-05-20T09:54:08.645Z,100438.20
2019-05-20T09:56:39.409Z,100441.15
2019-05-20T09:59:10.095Z,100442.77
2019-05-20T10:01:40.831Z,100445.09
2019-05-20T10:04:11.494Z,100448.04
2019-05-20T10:06:42.259Z,100449.94
2019-05-20T10:09:13.055Z,100450.68
2019-05-20T10:11:43.730Z,100452.58
2019-05-20T10:14:14.467Z,100456.30
2019-05-20T10:16:45.221Z,100454.76
2019-05-20T10:19:15.974Z,100459.47
2019-05-20T10:21:46.853Z,100452.52
2019-05-20T10:24:17.513Z,100449.06
2019-05-20T10:27:00.266Z,100453.24
2019-05-20T10:29:33.239Z,100452.56
2019-05-20T10:32:11.139Z,100460.32
2019-05-20T10:34:47.799Z,100456.78
2019-05-20T10:37:25.988Z,100459.66
2019-05-20T10:39:59.031Z,100468.97
2019-05-20T10:42:29.835Z,100469.30
2019-05-20T10:45:06.244Z,100477.83
2019-05-20T10:47:36.973Z,100480.27
2019-05-20T10:50:07.951Z,100478.56
2019-05-20T10:52:38.622Z,100482.50
2019-05-20T10:55:09.570Z,100475.46
2019-05-20T10:57:40.495Z,100472.89
2019-05-20T11:00:11.522Z,100476.47
2019-05-20T11:02:49.247Z,100480.41
2019-05-20T11:05:45.635Z,100475.70
2019-05-20T11:08:16.386Z,100484.19
2019-05-20T11:10:47.155Z,100481.82
2019-05-20T11:13:17.889Z,100481.19
2019-05-20T11:15:48.765Z,100480.27
2019-05-20T11:18:19.573Z,100485.42
2019-05-20T11:20:50.238Z,100486.04
2019-05-20T11:23:20.934Z,100491.67
2019-05-20T11:25:53.610Z,100497.02
2019-05-20T11:28:24.449Z,100496.73
2019-05-20T11:30:55.340Z,100504.30
2019-05-20T11:33:26.111Z,100504.16
2019-05-20T11:35:56.885Z,100508.14
2019-05-20T11:38:27.793Z,100511.63
2019-05-20T11:40:58.552Z,100507.51
2019-05-20T11:43:29.299Z,100511.19
2019-05-20T11:46:01.021Z,100512.45
2019-05-20T11:48:32.676Z,100508.73
2019-05-20T11:51:03.525Z,100511.97
2019-05-20T11:53:34.892Z,100509.73
2019-05-20T11:56:05.854Z,100502.16
2019-05-20T11:58:41.355Z,100510.80
2019-05-20T12:01:13.226Z,100501.95
2019-05-20T12:03:43.941Z,100505.47
2019-05-20T12:06:23.554Z,100499.65
2019-05-20T12:09:06.927Z,100500.09
2019-05-20T12:11:37.802Z,100495.38
2019-05-20T12:14:08.579Z,100496.16
2019-05-20T12:16:40.234Z,100508.72
2019-05-20T12:19:11.060Z,100501.11
2019-05-20T12:21:41.867Z,100505.03
2019-05-20T12:24:12.536Z,100502.45
2019-05-20T12:26:43.314Z,100505.28
2019-05-20T12:29:14.161Z,100502.16
2019-05-20T12:31:44.934Z,100498.28
2019-05-20T12:34:15.859Z,100498.34
2019-05-20T12:36:47.708Z,100498.25
2019-05-20T12:39:18.801Z,100494.36
2019-05-20T12:41:50.020Z,100497.80
2019-05-20T12:44:20.928Z,100502.84
2019-05-20T12:46:52.620Z,100496.87
2019-05-20T12:49:23.638Z,100502.98
2019-05-20T12:52:01.744Z,100501.32
2019-05-20T12:54:32.410Z,100503.12
2019-05-20T12:57:03.299Z,100503.08
2019-05-20T12:59:34.131Z,100498.74
2019-05-20T13:02:11.175Z,100504.67
2019-05-20T13:04:53.864Z,100502.55
2019-05-20T13:07:25.760Z,100506.72
2019-05-20T13:09:56.995Z,100505.63
2019-05-20T13:12:29.738Z,100502.47
2019-05-20T13:15:00.422Z,100504.55
2019-05-20T13:17:32.406Z,100506.27
2019-05-20T13:20:09.377Z,100493.84
2019-05-20T13:22:41.577Z,100499.66
2019-05-20T13:25:12.641Z,100492.97
2019-05-20T13:27:44.544Z,100496.88
2019-05-20T13:30:17.239Z,100493.84
2019-05-20T13:32:48.017Z,100492.66
2019-05-20T13:35:24.528Z,100491.03
2019-05-20T13:37:56.276Z,100489.36
2019-05-20T13:40:42.948Z,100489.15
2019-05-20T13:43:05.995Z,100489.12
2019-05-20T13:45:40.047Z,100488.52
2019-05-20T13:48:11.785Z,100485.67
2019-05-20T13:51:02.722Z,100491.92
2019-05-20T13:53:33.513Z,100487.46
2019-05-20T13:56:11.984Z,100492.82
2019-05-20T13:58:42.727Z,100487.78
2019-05-20T14:01:20.078Z,100499.52
2019-05-20T14:03:57.111Z,100494.64
2019-05-20T14:06:29.402Z,100490.91
2019-05-20T14:09:00.259Z,100493.86
2019-05-20T14:11:34.487Z,100489.66
2019-05-20T14:14:04.576Z,100490.64
2019-05-20T14:16:40.436Z,100488.48
2019-05-20T14:19:15.463Z,100492.79
2019-05-20T14:21:50.518Z,100487.05
2019-05-20T14:24:21.263Z,100491.22
2019-05-20T14:26:52.343Z,100486.72
2019-05-20T14:29:24.036Z,100488.88
2019-05-20T14:31:58.518Z,100489.68
2019-05-20T14:34:29.301Z,100491.27
2019-05-20T14:37:00.223Z,100489.30
2019-05-20T14:39:32.063Z,100494.55
2019-05-20T14:42:03.032Z,100494.85
2019-05-20T14:44:33.879Z,100491.98
2019-05-20T14:47:04.785Z,100490.32
2019-05-20T14:49:35.456Z,100489.27
2019-05-20T14:52:06.453Z,100489.41
2019-05-20T14:54:44.188Z,100494.37
2019-05-20T14:57:26.098Z,100487.71
2019-05-20T15:00:03.076Z,100489.33
2019-05-20T15:02:37.824Z,100491.23
2019-05-20T15:05:23.013Z,100490.36
2019-05-20T15:07:54.081Z,100490.32
2019-05-20T15:10:25.922Z,100490.77
2019-05-20T15:12:56.688Z,100486.91
2019-05-20T15:15:30.673Z,100483.25
2019-05-20T15:18:03.574Z,100491.42
2019-05-20T15:20:44.934Z,100490.55
2019-05-20T15:23:15.649Z,100492.70
2019-05-20T15:25:52.031Z,100490.77
2019-05-20T15:28:22.719Z,100485.40
2019-05-20T15:30:54.543Z,100487.41
2019-05-20T15:33:25.405Z,100489.83
2019-05-20T15:35:58.724Z,100481.31
2019-05-20T15:38:31.028Z,100490.43
2019-05-20T15:41:05.742Z,100484.12
2019-05-20T15:43:38.296Z,100486.62
2019-05-20T15:46:23.566Z,100485.78
2019-05-20T15:49:00.672Z,100487.06
2019-05-20T15:51:40.873Z,100483.63
2019-05-20T15:54:13.753Z,100487.98
2019-05-20T15:56:44.376Z,100491.42
2019-05-20T15:59:20.861Z,100488.20
2019-05-20T16:01:58.948Z,100484.98
2019-05-20T16:04:36.594Z,100483.97
2019-05-20T16:07:08.309Z,100482.27
2019-05-20T16:09:40.007Z,100479.43
2019-05-20T16:12:12.610Z,100480.07
2019-05-20T16:14:51.601Z,100470.04
2019-05-20T16:17:22.540Z,100481.84
2019-05-20T16:19:53.344Z,100478.02
2019-05-20T16:22:31.521Z,100480.73
2019-05-20T16:25:09.597Z,100477.85
2019-05-20T16:27:40.552Z,100477.13
2019-05-20T16:30:12.442Z,100476.06
2019-05-20T16:32:43.429Z,100481.94
2019-05-20T16:35:15.577Z,100488.63
2019-05-20T16:37:46.245Z,100488.42
2019-05-20T16:40:17.029Z,100479.22
2019-05-20T16:42:53.001Z,100482.98
2019-05-20T16:45:32.567Z,100473.54
2019-05-20T16:48:04.338Z,100480.66
2019-05-20T16:50:45.536Z,100479.30
2019-05-20T16:53:16.263Z,100478.24
2019-05-20T16:55:52.698Z,100486.48
2019-05-20T16:58:28.329Z,100484.30
2019-05-20T17:00:59.085Z,100484.41
2019-05-20T17:03:33.232Z,100486.30
2019-05-20T17:06:03.945Z,100483.84
2019-05-20T17:08:34.629Z,100484.22
2019-05-20T17:11:05.432Z,100480.97
2019-05-20T17:13:36.067Z,100485.46
2019-05-20T17:16:07.659Z,100485.34
2019-05-20T17:18:39.434Z,100491.10
2019-05-20T17:21:12.068Z,100493.91
2019-05-20T17:23:47.559Z,100491.36
2019-05-20T17:26:21.051Z,100493.78
2019-05-20T17:28:53.779Z,100499.19
2019-05-20T17:31:26.750Z,100500.63
2019-05-20T17:33:58.215Z,100508.98
2019-05-20T17:36:29.037Z,100498.34
2019-05-20T17:39:02.982Z,100506.89
2019-05-20T17:41:33.962Z,100511.62
2019-05-20T17:44:04.958Z,100505.16
2019-05-20T17:46:35.958Z,100501.16
2019-05-20T17:49:07.597Z,100505.16
2019-05-20T17:51:38.262Z,100504.81
2019-05-20T17:54:09.045Z,100512.69
2019-05-20T17:56:40.467Z,100512.19
2019-05-20T17:59:13.221Z,100508.02
2019-05-20T18:01:43.905Z,100511.64
2019-05-20T18:04:16.663Z,100509.86
2019-05-20T18:10:16.417Z,100518.34
2019-05-20T18:16:09.093Z,100534.76
2019-05-20T18:18:41.933Z,100544.45
2019-05-20T18:21:15.174Z,100545.79
2019-05-20T18:23:48.673Z,100544.20
2019-05-20T18:26:20.138Z,100544.92
2019-05-20T18:28:51.093Z,100551.75
2019-05-20T18:31:32.138Z,100550.05
2019-05-20T18:33:54.556Z,100549.98
2019-05-20T18:36:25.219Z,100543.96
2019-05-20T18:38:56.193Z,100549.81
2019-05-20T18:41:27.615Z,100555.81
2019-05-20T18:43:59.492Z,100550.77
2019-05-20T18:46:31.297Z,100554.47
2019-05-20T18:49:03.578Z,100553.34
2019-05-20T18:51:34.257Z,100547.17
2019-05-20T18:54:06.035Z,100548.77
2019-05-20T18:56:38.108Z,100543.82
2019-05-20T18:59:09.624Z,100544.20
2019-05-20T19:02:02.337Z,100551.97
2019-05-20T19:04:20.228Z,100550.70
2019-05-20T19:06:51.045Z,100550.50
2019-05-20T19:09:24.157Z,100555.25
2019-05-20T19:11:56.063Z,100557.62
2019-05-20T19:14:27.108Z,100552.82
2019-05-20T19:16:59.056Z,100557.56
2019-05-20T19:19:33.398Z,100555.47
2019-05-20T19:22:07.449Z,100556.69
2019-05-20T19:24:38.217Z,100564.51
2019-05-20T19:27:09.009Z,100560.77
2019-05-20T19:29:41.649Z,100560.34
2019-05-20T19:32:14.113Z,100562.34
2019-05-20T19:34:47.214Z,100559.91
2019-05-20T19:37:23.746Z,100556.47
2019-05-20T19:40:00.937Z,100559.05
2019-05-20T19:42:38.050Z,100559.05
2019-05-20T19:45:15.233Z,100549.91
2019-05-20T19:47:49.933Z,100552.12
2019-05-20T19:50:20.627Z,100557.46
2019-05-20T19:52:54.903Z,100568.34
2019-05-20T19:55:40.202Z,100566.35
2019-05-20T19:58:11.951Z,100575.88
2019-05-20T20:00:43.498Z,100568.11
2019-05-20T20:03:14.480Z,100564.89
2019-05-20T20:05:56.372Z,100568.59
2019-05-20T20:08:28.320Z,100567.53
2019-05-20T20:11:06.243Z,100574.81
2019-05-20T20:13:40.296Z,100582.00
2019-05-20T20:16:17.373Z,100579.52
2019-05-20T20:18:45.270Z,100576.66
2019-05-20T20:21:16.637Z,100579.77
2019-05-20T20:23:52.411Z,100577.29
2019-05-20T20:26:27.108Z,100584.58
2019-05-20T20:28:59.021Z,100589.67
2019-05-20T20:31:29.627Z,100588.45
2019-05-20T20:34:05.723Z,100598.70
2019-05-20T20:36:46.186Z,100598.56
2019-05-20T20:39:21.518Z,100595.98
2019-05-20T20:41:59.185Z,100593.76
2019-05-20T20:44:30.525Z,100596.37
2019-05-20T20:47:42.483Z,100600.55
2019-05-20T20:50:13.622Z,100596.27
2019-05-20T20:52:45.927Z,100597.84
2019-05-20T20:55:16.982Z,100601.19
2019-05-20T20:57:47.656Z,100594.14
2019-05-20T21:00:19.656Z,100597.45
2019-05-20T21:02:53.467Z,100598.88
2019-05-20T21:05:23.028Z,100602.45
2019-05-20T21:07:54.827Z,100608.02
2019-05-20T21:10:26.027Z,100608.89
2019-05-20T21:12:58.129Z,100608.79
2019-05-20T21:15:29.870Z,100606.70
2019-05-20T21:18:03.374Z,100616.95
2019-05-20T21:20:35.440Z,100614.50
2019-05-20T21:23:06.332Z,100618.23
2019-05-20T21:25:38.239Z,100618.06
2019-05-20T21:28:14.269Z,100617.47
2019-05-20T21:30:47.524Z,100617.01
2019-05-20T21:33:20.888Z,100617.12
2019-05-20T21:36:14.593Z,100612.45
2019-05-20T21:38:45.524Z,100610.25
2019-05-20T21:41:16.440Z,100615.06
2019-05-20T21:43:47.053Z,100611.22
2019-05-20T21:46:25.934Z,100612.33
2019-05-20T21:48:57.622Z,100616.20
2019-05-20T21:51:35.727Z,100613.34
2019-05-20T21:54:06.489Z,100602.96
2019-05-20T21:56:38.000Z,100609.41
2019-05-20T21:59:10.973Z,100613.23
2019-05-20T22:01:42.062Z,100606.46
2019-05-20T22:04:13.924Z,100601.88
2019-05-20T22:06:46.059Z,100598.94
2019-05-20T22:09:18.877Z,100608.06
2019-05-20T22:11:52.736Z,100612.38
2019-05-20T22:14:23.531Z,100606.84
2019-05-20T22:16:54.813Z,100606.70
2019-05-20T22:19:25.541Z,100602.89
2019-05-20T22:21:57.912Z,100601.89
2019-05-20T22:24:29.543Z,100601.77
2019-05-20T22:27:01.266Z,100603.16
2019-05-20T22:29:32.725Z,100599.84
2019-05-20T22:32:03.724Z,100611.55
2019-05-20T22:34:36.520Z,100608.34
2019-05-20T22:37:18.861Z,100608.96
2019-05-20T22:39:49.723Z,100600.20
2019-05-20T22:42:20.506Z,100599.94
2019-05-20T22:44:52.136Z,100599.56
2019-05-20T22:47:22.804Z,100602.91
2019-05-20T22:49:53.526Z,100609.82
2019-05-20T22:52:24.213Z,100609.31
2019-05-20T22:54:54.851Z,100609.31
2019-05-20T22:57:31.980Z,100616.11
2019-05-20T23:00:09.056Z,100616.61
2019-05-20T23:02:42.066Z,100615.12
2019-05-20T23:05:18.459Z,100624.24
2019-05-20T23:07:49.666Z,100625.98
2019-05-20T23:10:20.483Z,100628.58
2019-05-20T23:12:51.212Z,100630.17
2019-05-20T23:15:21.885Z,100637.45
2019-05-20T23:17:53.322Z,100633.50
2019-05-20T23:20:27.057Z,100636.21
2019-05-20T23:23:07.954Z,100628.33
2019-05-20T23:25:40.788Z,100633.14
2019-05-20T23:28:21.054Z,100632.88
2019-05-20T23:30:51.804Z,100628.05
2019-05-20T23:33:22.618Z,100623.02
2019-05-20T23:35:56.431Z,100626.34
2019-05-20T23:38:27.006Z,100623.63
2019-05-20T23:40:58.459Z,100625.60
2019-05-20T23:43:30.792Z,100625.34
2019-05-20T23:46:02.672Z,100627.44
2019-05-20T23:48:43.544Z,100628.92
2019-05-20T23:51:14.286Z,100629.16
2019-05-20T23:53:45.749Z,100625.96
2019-05-20T23:56:26.458Z,100633.71
2019-05-20T23:58:57.499Z,100630.39
